• Join FlightAware (Why Join?)
  • Login
  • US Flag 
12:44AM EDT


 

Airport Tracker/Info


-or-


 

Live Flight TrackerFlight Track Log ✈ N544PS ✈ 23-Apr-2013 ✈ KRAP - KPDX

Flight Track Log - Related Links

Times and Time Zones

All times are in EDT time to prevent confusion due to time zone crossing. See the N544PS flight status page for this flight to view local times or setup timezone preferences in your user account.

Time Position Orientation Groundspeed Altitude Reporting Facility
EDT Latitude Longitude Course Direction KTS MPH feet Rate Location/Type
04:31PM 44.0000 -103.1656 291° West 228 262 11,000  Level Denver Center
04:32PM 44.0122 -103.2469 282° West 225 259 14,300 3,300 Climbing Denver Center
04:33PM 44.0308 -103.3556 283° West 243 280 17,800 3,120 Climbing Denver Center
04:34PM 44.0467 -103.4431 284° West 246 283 20,800 2,340 Climbing Denver Center
04:35PM 44.0636 -103.5514 282° West 252 290 22,700 1,860 Climbing Denver Center
04:36PM 44.0828 -103.6669 283° West 296 341 24,700 1,980 Climbing Denver Center
04:37PM 44.1011 -103.7769 283° West 304 350 26,800 2,160 Climbing Denver Center
04:38PM 44.1208 -103.9064 282° West 308 354 29,200 1,980 Climbing Denver Center
04:39PM 44.1378 -104.0142 282° West 300 345 30,900 1,680 Climbing Denver Center
04:40PM 44.1583 -104.1428 283° West 304 350 32,700 1,500 Climbing Denver Center
04:41PM 44.1750 -104.2511 282° West 301 346 34,000 1,260 Climbing Denver Center
04:42PM 44.1942 -104.3747 282° West 295 339 35,400 1,200 Climbing Denver Center
04:43PM 44.2100 -104.4783 282° West 288 331 36,500 840 Climbing Denver Center
04:45PM 44.2267 -104.5814 283° West 286 329 37,300 480 Climbing Denver Center
04:46PM 44.2486 -104.7231 282° West 293 337 37,600 300 Climbing Denver Center
04:47PM 44.2694 -104.8569 282° West 312 359 38,000 480 Climbing Denver Center
04:48PM 44.2881 -104.9906 281° West 314 361 38,700 660 Climbing Denver Center
04:49PM 44.3081 -105.1192 282° West 307 353 39,400 540 Climbing Denver Center
04:50PM 44.3244 -105.2289 282° West 303 349 39,900 240 Climbing Denver Center
04:51PM 44.3428 -105.3581 281° West 304 350 40,000  Climbing Denver Center
04:52PM 44.3594 -105.4742 281° West 314 361 40,000  Level Denver Center
04:53PM 44.3817 -105.6319 281° West 324 373 40,000  Level Denver Center
04:54PM 44.4003 -105.7522 282° West 329 379 40,000  Level Denver Center
04:55PM 44.4225 -105.9133 281° West 331 381 40,000  Level Denver Center
04:57PM 44.4414 -106.0525 281° West 328 377 40,000  Level Denver Center
04:58PM 44.4625 -106.1939 282° West 320 368 40,000  Level Salt Lake Center
04:59PM 44.4786 -106.3114 281° West 320 368 40,000  Level Salt Lake Center
05:00PM 44.4939 -106.4275 280° West 318 366 40,000  Level Salt Lake Center
05:01PM 44.5122 -106.5642 281° West 320 368 40,000  Level Salt Lake Center
05:02PM 44.5286 -106.6811 281° West 319 367 40,000  Level Salt Lake Center
05:03PM 44.5458 -106.8183 280° West 321 369 40,000  Level Salt Lake Center
05:04PM 44.5608 -106.9353 280° West 319 367 40,000  Level Salt Lake Center
05:05PM 44.5758 -107.0517 280° West 319 367 40,000  Level Salt Lake Center
05:06PM 44.5936 -107.1875 280° West 317 365 40,000  Level Salt Lake Center
05:07PM 44.6075 -107.3053 279° West 318 366 40,000  Level Salt Lake Center
05:08PM 44.6258 -107.4431 281° West 320 368 40,000  Level Salt Lake Center
05:09PM 44.6411 -107.5611 280° West 322 371 40,000  Level Salt Lake Center
05:10PM 44.6581 -107.6992 280° West 320 368 40,000  Level Salt Lake Center
05:11PM 44.6731 -107.8194 280° West 323 372 40,000  Level Salt Lake Center
05:12PM 44.6875 -107.9392 280° West 321 369 40,000  Level Salt Lake Center
05:13PM 44.7039 -108.0814 279° West 325 374 40,000  Level Salt Lake Center
05:14PM 44.7192 -108.2022 280° West 325 374 40,000  Level Salt Lake Center
05:15PM 44.7333 -108.3239 279° West 328 377 40,000  Level Salt Lake Center
05:16PM 44.7503 -108.4653 280° West 328 377 40,000  Level Salt Lake Center
05:17PM 44.7650 -108.5867 280° West 328 377 40,000  Level Salt Lake Center
05:18PM 44.7808 -108.7278 279° West 327 376 40,000  Level Salt Lake Center
05:19PM 44.7942 -108.8478 279° West 325 374 40,000  Level Salt Lake Center
05:20PM 44.8083 -108.9681 279° West 325 374 40,000  Level Salt Lake Center
05:21PM 44.8244 -109.1108 279° West 330 380 40,000  Level Salt Lake Center
05:22PM 44.8367 -109.2317 278° West 327 376 40,000  Level Salt Lake Center
05:23PM 44.8522 -109.3722 279° West 326 375 40,000  Level Salt Lake Center
05:24PM 44.8650 -109.4919 279° West 323 372 40,000  Level Salt Lake Center
05:25PM 44.8797 -109.6331 278° West 326 375 40,000  Level Salt Lake Center
05:26PM 44.8933 -109.7550 279° West 328 377 40,000  Level Salt Lake Center
05:28PM 44.9056 -109.8767 278° West 323 372 40,000  Level Salt Lake Center
05:29PM 44.9211 -110.0175 279° West 326 375 40,000  Level Salt Lake Center
05:30PM 44.9325 -110.1361 278° West 322 371 40,000  Level Salt Lake Center
05:31PM 44.9458 -110.2750 278° West 320 368 40,000  Level Salt Lake Center
05:32PM 44.9583 -110.3936 279° West 320 368 40,000  Level Salt Lake Center
05:33PM 44.9728 -110.5344 278° West 324 373 40,000  Level Salt Lake Center
05:34PM 44.9836 -110.6536 277° West 322 371 40,000  Level Salt Lake Center
05:35PM 44.9981 -110.7925 278° West 321 369 40,000  Level Salt Lake Center
05:36PM 45.0092 -110.9117 278° West 321 369 40,000  Level Salt Lake Center
05:37PM 45.0217 -111.0500 277° West 320 368 40,000  Level Salt Lake Center
05:38PM 45.0333 -111.1683 278° West 319 367 40,000  Level Salt Lake Center
05:39PM 45.0461 -111.3061 278° West 319 367 40,000  Level Salt Lake Center
05:40PM 45.0558 -111.4261 277° West 321 369 40,000  Level Salt Lake Center
05:41PM 45.0669 -111.5447 278° West 320 368 40,000  Level Salt Lake Center
05:42PM 45.0786 -111.6828 277° West 319 367 40,000  Level Salt Lake Center
05:43PM 45.0894 -111.8028 277° West 322 371 40,000  Level Salt Lake Center
05:44PM 45.1019 -111.9408 277° West 318 366 40,000  Level Salt Lake Center
05:45PM 45.1114 -112.0514 277° West 316 364 40,000  Level Salt Lake Center
05:46PM 45.1236 -112.1989 277° West 321 369 40,000  Level Salt Lake Center
05:47PM 45.1328 -112.3186 276° West 321 369 40,000  Level Salt Lake Center
05:48PM 45.1442 -112.4581 277° West 320 368 40,000  Level Salt Lake Center
05:49PM 45.1536 -112.5781 276° West 321 369 40,000  Level Salt Lake Center
05:50PM 45.1658 -112.7169 277° West 319 367 40,000  Level Salt Lake Center
05:51PM 45.1742 -112.8369 276° West 319 367 40,000  Level Salt Lake Center
05:52PM 45.1836 -112.9567 276° West 320 368 40,000  Level Salt Lake Center
05:53PM 45.1944 -113.0967 276° West 321 369 40,000  Level Salt Lake Center
05:54PM 45.2025 -113.2172 275° West 322 371 40,000  Level Salt Lake Center
05:55PM 45.2136 -113.3589 276° West 323 372 40,000  Level Salt Lake Center
05:56PM 45.2222 -113.4794 276° West 322 371 40,000  Level Salt Lake Center
05:57PM 45.2317 -113.6214 275° West 323 372 40,000  Level Salt Lake Center
05:58PM 45.2414 -113.7428 277° West 324 373 40,000  Level Salt Lake Center
05:59PM 45.2500 -113.8642 276° West 322 371 40,000  Level Salt Lake Center
06:00PM 45.2600 -114.0094 276° West 329 379 40,000  Level Salt Lake Center
06:01PM 45.2678 -114.1314 275° West 326 375 40,000  Level Salt Lake Center
06:03PM 45.2769 -114.2733 275° West 324 373 40,000  Level Salt Lake Center
06:04PM 45.2847 -114.3961 275° West 325 374 40,000  Level Salt Lake Center
06:05PM 45.2939 -114.5397 275° West 327 376 40,000  Level Salt Lake Center
06:06PM 45.3017 -114.6614 275° West 324 373 40,000  Level Salt Lake Center
06:07PM 45.3083 -114.7853 274° West 327 376 40,000  Level Salt Lake Center
06:08PM 45.3181 -114.9289 276° West 329 379 40,000  Level Salt Lake Center
06:09PM 45.3247 -115.0503 275° West 325 374 40,000  Level Salt Lake Center
06:10PM 45.3331 -115.1928 275° West 326 375 40,000  Level Salt Lake Center
06:11PM 45.3394 -115.3150 274° West 324 373 40,000  Level Salt Lake Center
06:12PM 45.3472 -115.4564 275° West 324 373 40,000  Level Salt Lake Center
06:13PM 45.3542 -115.5792 275° West 326 375 40,000  Level Salt Lake Center
06:14PM 45.3600 -115.6997 274° West 322 371 40,000  Level Salt Lake Center
06:14PM 45.3622 -115.7406 274° West 321 369 40,000  Level Seattle Center
06:15PM 45.3697 -115.8844 274° West 326 375 40,000  Level Seattle Center
06:16PM 45.3758 -116.0061 274° West 324 373 40,000  Level Seattle Center
06:17PM 45.3806 -116.1086 274° West 326 375 40,000  Level Salt Lake Center
06:17PM 45.3811 -116.1300 272° West 328 377 40,000  Level Seattle Center
06:18PM 45.3886 -116.2719 274° West 325 374 40,000  Level Seattle Center
06:19PM 45.3939 -116.3944 274° West 324 373 40,000  Level Seattle Center
06:20PM 45.4006 -116.5386 274° West 328 377 40,000  Level Seattle Center
06:21PM 45.4053 -116.6625 273° West 329 379 40,000  Level Seattle Center
06:22PM 45.4111 -116.7861 274° West 328 377 40,000  Level Seattle Center
06:23PM 45.4167 -116.9286 273° West 326 375 40,000  Level Seattle Center
06:24PM 45.4217 -117.0517 273° West 326 375 40,000  Level Seattle Center
06:25PM 45.4261 -117.1758 273° West 328 377 40,000  Level Seattle Center
06:26PM 45.4328 -117.3183 274° West 324 373 40,000  Level Seattle Center
06:27PM 45.4361 -117.4419 272° West 326 375 40,000  Level Seattle Center
06:28PM 45.4417 -117.5867 273° West 327 376 40,000  Level Seattle Center
06:29PM 45.4464 -117.7100 273° West 328 377 40,000  Level Seattle Center
06:30PM 45.4497 -117.8292 272° West 327 376 40,000  Level Seattle Center
06:31PM 45.4539 -117.9589 273° West 328 377 40,000  Level Seattle Center
06:32PM 45.4586 -118.0894 273° West 329 379 40,000  Level Seattle Center
06:33PM 45.4617 -118.2169 272° West 324 373 40,000  Level Seattle Center
06:34PM 45.4656 -118.3447 273° West 324 373 40,000  Level Seattle Center
06:35PM 45.4694 -118.4747 272° West 327 376 40,000  Level Seattle Center
06:36PM 45.4733 -118.6253 272° West 319 367 40,000  Level Seattle Center
06:38PM 45.4772 -118.7533 273° West 324 373 40,000 -300 Level Seattle Center
06:39PM 45.4806 -118.8817 272° West 322 371 39,500 -780 Descending Seattle Center
06:40PM 45.4828 -119.0147 271° West 333 383 38,500 -1,140 Descending Seattle Center
06:41PM 45.4864 -119.1481 272° West 337 388 37,300 -780 Descending Seattle Center
06:42PM 45.4886 -119.2831 271° West 340 391 37,000 -180 Descending Seattle Center
06:43PM 45.4925 -119.4128 272° West 331 381 37,000  Level Seattle Center
06:44PM 45.4942 -119.5394 271° West 323 372 37,000  Level Seattle Center
06:45PM 45.4967 -119.6675 272° West 325 374 37,000  Level Seattle Center
06:46PM 45.4983 -119.8019 271° West 336 387 37,000  Level Seattle Center
06:47PM 45.5000 -119.9347 271° West 337 388 37,000  Level Seattle Center
06:48PM 45.5036 -120.0700 272° West 341 392 37,000 -300 Level Seattle Center
06:49PM 45.5050 -120.2056 271° West 342 394 36,400 -960 Descending Seattle Center
06:50PM 45.5075 -120.3669 271° West 339 390 35,100 -1,560 Descending Seattle Center
06:51PM 45.5083 -120.4833 271° West 338 389 33,300 -1,920 Descending Seattle Center
06:52PM 45.5094 -120.6131 271° West 332 382 31,300 -2,040 Descending Seattle Center
06:53PM 45.5111 -120.7414 271° West 326 375 29,200 -2,100 Descending Seattle Center
06:54PM 45.5122 -120.8678 271° West 322 371 27,100 -2,280 Descending Seattle Center
06:55PM 45.5125 -121.0167 270° West 316 364 24,600 -2,220 Descending Seattle Center
06:56PM 45.5122 -121.1450 270° West 322 371 22,600 -1,920 Descending Seattle Center
06:57PM 45.5136 -121.2708 271° West 321 369 20,700 -1,980 Descending Seattle Center
06:57PM 45.5122 -121.3461 269° West 320 368 19,500 -1,980 Descending Seattle Center
06:58PM 45.5131 -121.3992 271° West 323 372 18,700 -1,800 Descending Seattle Center
06:59PM 45.5125 -121.5008 270° West 320 368 17,400 -1,800 Descending Seattle Center
06:59PM 45.5133 -121.5231 273° West 318 366 16,900 -1,980 Descending Seattle Center
06:59PM 45.5133 -121.6181 270° West 319 367 15,600 -1,920 Descending Seattle Center
07:00PM 45.5136 -121.6494 271° West 318 366 15,000 -2,100 Descending Seattle Center
07:00PM 45.5142 -121.7353 271° West 297 342 13,500 -1,980 Descending Seattle Center
07:01PM 45.5133 -121.7636 268° West 300 345 13,000 -2,220 Descending Seattle Center
07:01PM 45.5125 -121.8411 269° West 286 329 11,500 -2,280 Descending Seattle Center
07:02PM 45.5131 -121.8781 271° West 289 333 10,700 -2,100 Descending Seattle Center
07:02PM 45.5125 -121.9553 269° West 290 334 9,400 -2,100 Descending Seattle Center
07:03PM 45.5128 -121.9917 271° West 290 334 8,600 -2,100 Descending Seattle Center
07:03PM 45.5033 -122.0581 259° West 259 298 7,300 -1,680 Descending Seattle Center
07:04PM 45.5050 -122.0953 274° West 280 322 6,900 -1,320 Descending Seattle Center
07:04PM 45.4958 -122.1478 256° West 215 247 6,000 -1,380 Descending Seattle Center
07:05PM 45.4958 -122.1742 270° West 233 268 5,500 -1,200 Descending Seattle Center
07:06PM 45.5044 -122.2428 280° West 192 221 4,600 -1,320 Descending Seattle Center
07:06PM 45.5078 -122.2625 284° West 203 234 4,200 -1,020 Descending Seattle Center
07:07PM 45.5169 -122.3242 282° West 223 257 3,600 -1,020 Descending Seattle Center
07:07PM 45.5211 -122.3489 284° West 209 241 3,200 -1,020 Descending Seattle Center
07:08PM 45.5272 -122.3969 280° West 191 220 2,700 -1,020 Descending Seattle Center
07:08PM 45.5339 -122.4225 290° West 206 237 2,200 -720 Descending Seattle Center
07:09PM 45.5389 -122.4539 283° West 135 155 2,000 -600 Descending Seattle Center
07:09PM 45.5464 -122.4728 300° West 170 196 1,600 -840 Descending Seattle Center
07:10PM 45.5628 -122.5181 297° West 150 173 1,000 -780 Descending Seattle Center
07:11PM 45.5758 -122.5497 301° West 121 139 400 -540 Descending Seattle Center
07:11PM 45.5836 -122.5669 303° West 148 170 400  Level Seattle Center